sensor_id;sensor_type;location;lat;lon;timestamp;P1;durP1;ratioP1;P2;durP2;ratioP2
61635;SDS011;59438;45.014;39.006;2022-12-22T00:01:18;19.25;;;9.73;;
61635;SDS011;59438;45.014;39.006;2022-12-22T00:03:44;17.38;;;9.57;;
61635;SDS011;59438;45.014;39.006;2022-12-22T00:06:11;24.00;;;10.63;;
61635;SDS011;59438;45.014;39.006;2022-12-22T00:08:37;21.73;;;10.55;;
61635;SDS011;59438;45.014;39.006;2022-12-22T00:11:05;25.15;;;11.90;;
61635;SDS011;59438;45.014;39.006;2022-12-22T00:16:02;23.45;;;11.13;;
61635;SDS011;59438;45.014;39.006;2022-12-22T00:18:29;25.25;;;11.32;;
61635;SDS011;59438;45.014;39.006;2022-12-22T00:20:55;28.17;;;11.95;;
61635;SDS011;59438;45.014;39.006;2022-12-22T00:23:21;34.10;;;14.80;;
61635;SDS011;59438;45.014;39.006;2022-12-22T00:25:48;39.80;;;18.60;;
61635;SDS011;59438;45.014;39.006;2022-12-22T00:28:14;43.08;;;18.55;;
61635;SDS011;59438;45.014;39.006;2022-12-22T00:30:42;37.67;;;17.38;;
61635;SDS011;59438;45.014;39.006;2022-12-22T00:33:10;35.55;;;16.77;;
61635;SDS011;59438;45.014;39.006;2022-12-22T00:35:39;42.28;;;16.50;;
61635;SDS011;59438;45.014;39.006;2022-12-22T00:38:09;32.53;;;14.57;;
61635;SDS011;59438;45.014;39.006;2022-12-22T00:40:38;27.67;;;13.10;;
61635;SDS011;59438;45.014;39.006;2022-12-22T00:43:05;28.30;;;13.35;;
61635;SDS011;59438;45.014;39.006;2022-12-22T00:45:31;27.17;;;12.80;;
61635;SDS011;59438;45.014;39.006;2022-12-22T00:47:59;28.15;;;13.50;;
61635;SDS011;59438;45.014;39.006;2022-12-22T00:50:28;26.77;;;13.15;;
61635;SDS011;59438;45.014;39.006;2022-12-22T00:52:57;29.75;;;12.82;;
61635;SDS011;59438;45.014;39.006;2022-12-22T00:55:26;29.67;;;11.73;;
61635;SDS011;59438;45.014;39.006;2022-12-22T00:57:57;25.70;;;13.20;;
61635;SDS011;59438;45.014;39.006;2022-12-22T01:00:24;26.00;;;12.80;;
61635;SDS011;59438;45.014;39.006;2022-12-22T01:02:50;30.05;;;12.45;;
61635;SDS011;59438;45.014;39.006;2022-12-22T01:05:20;32.83;;;12.43;;
61635;SDS011;59438;45.014;39.006;2022-12-22T01:07:46;28.77;;;13.00;;
61635;SDS011;59438;45.014;39.006;2022-12-22T01:10:13;33.17;;;13.45;;
61635;SDS011;59438;45.014;39.006;2022-12-22T01:12:40;28.33;;;13.10;;
61635;SDS011;59438;45.014;39.006;2022-12-22T01:15:08;24.38;;;12.45;;
61635;SDS011;59438;45.014;39.006;2022-12-22T01:17:36;32.25;;;13.20;;
61635;SDS011;59438;45.014;39.006;2022-12-22T01:20:03;25.60;;;12.75;;
61635;SDS011;59438;45.014;39.006;2022-12-22T01:22:31;23.85;;;12.50;;
61635;SDS011;59438;45.014;39.006;2022-12-22T01:24:58;23.55;;;12.55;;
61635;SDS011;59438;45.014;39.006;2022-12-22T01:27:24;28.05;;;12.68;;
61635;SDS011;59438;45.014;39.006;2022-12-22T01:29:50;29.75;;;13.90;;
61635;SDS011;59438;45.014;39.006;2022-12-22T01:32:17;34.15;;;13.23;;
61635;SDS011;59438;45.014;39.006;2022-12-22T01:34:43;26.55;;;12.45;;
61635;SDS011;59438;45.014;39.006;2022-12-22T01:37:10;29.05;;;13.73;;
61635;SDS011;59438;45.014;39.006;2022-12-22T01:39:37;29.13;;;13.73;;
61635;SDS011;59438;45.014;39.006;2022-12-22T01:42:04;28.60;;;14.57;;
61635;SDS011;59438;45.014;39.006;2022-12-22T01:44:30;27.05;;;13.20;;
61635;SDS011;59438;45.014;39.006;2022-12-22T01:49:57;30.30;;;12.30;;
61635;SDS011;59438;45.014;39.006;2022-12-22T01:52:28;24.30;;;11.65;;
61635;SDS011;59438;45.014;39.006;2022-12-22T01:55:00;29.73;;;12.88;;
61635;SDS011;59438;45.014;39.006;2022-12-22T01:57:42;27.70;;;13.30;;
61635;SDS011;59438;45.014;39.006;2022-12-22T02:00:09;20.73;;;11.05;;
61635;SDS011;59438;45.014;39.006;2022-12-22T02:02:36;29.17;;;13.05;;
61635;SDS011;59438;45.014;39.006;2022-12-22T02:05:02;27.70;;;13.23;;
61635;SDS011;59438;45.014;39.006;2022-12-22T02:07:38;22.30;;;11.35;;
61635;SDS011;59438;45.014;39.006;2022-12-22T02:10:18;22.45;;;11.88;;
61635;SDS011;59438;45.014;39.006;2022-12-22T02:12:57;25.90;;;12.70;;
61635;SDS011;59438;45.014;39.006;2022-12-22T02:15:28;22.35;;;11.93;;
61635;SDS011;59438;45.014;39.006;2022-12-22T02:18:00;21.77;;;11.80;;
61635;SDS011;59438;45.014;39.006;2022-12-22T02:20:36;28.80;;;13.25;;
61635;SDS011;59438;45.014;39.006;2022-12-22T02:23:08;29.52;;;12.07;;
61635;SDS011;59438;45.014;39.006;2022-12-22T02:25:48;31.50;;;12.43;;
61635;SDS011;59438;45.014;39.006;2022-12-22T02:28:20;31.50;;;13.07;;
61635;SDS011;59438;45.014;39.006;2022-12-22T02:30:48;25.13;;;12.80;;
61635;SDS011;59438;45.014;39.006;2022-12-22T02:33:16;27.65;;;13.02;;
61635;SDS011;59438;45.014;39.006;2022-12-22T02:35:45;29.92;;;13.88;;
61635;SDS011;59438;45.014;39.006;2022-12-22T02:38:21;32.80;;;13.18;;
61635;SDS011;59438;45.014;39.006;2022-12-22T02:40:57;32.50;;;14.15;;
61635;SDS011;59438;45.014;39.006;2022-12-22T02:43:41;29.02;;;13.82;;
61635;SDS011;59438;45.014;39.006;2022-12-22T02:46:21;31.83;;;14.68;;
61635;SDS011;59438;45.014;39.006;2022-12-22T02:48:52;30.85;;;14.98;;
61635;SDS011;59438;45.014;39.006;2022-12-22T02:53:50;37.72;;;15.98;;
61635;SDS011;59438;45.014;39.006;2022-12-22T02:56:19;44.13;;;22.05;;
61635;SDS011;59438;45.014;39.006;2022-12-22T02:58:46;46.42;;;22.58;;
61635;SDS011;59438;45.014;39.006;2022-12-22T03:01:13;37.72;;;21.48;;
61635;SDS011;59438;45.014;39.006;2022-12-22T03:03:39;35.28;;;19.45;;
61635;SDS011;59438;45.014;39.006;2022-12-22T03:06:05;36.08;;;19.42;;
61635;SDS011;59438;45.014;39.006;2022-12-22T03:08:32;36.47;;;19.15;;
61635;SDS011;59438;45.014;39.006;2022-12-22T03:10:58;30.23;;;18.23;;
61635;SDS011;59438;45.014;39.006;2022-12-22T03:13:25;33.38;;;19.48;;
61635;SDS011;59438;45.014;39.006;2022-12-22T03:15:52;36.38;;;19.38;;
61635;SDS011;59438;45.014;39.006;2022-12-22T03:18:19;30.35;;;18.75;;
61635;SDS011;59438;45.014;39.006;2022-12-22T03:20:45;34.35;;;19.02;;
61635;SDS011;59438;45.014;39.006;2022-12-22T03:23:11;31.98;;;18.73;;
61635;SDS011;59438;45.014;39.006;2022-12-22T03:25:38;34.92;;;19.02;;
61635;SDS011;59438;45.014;39.006;2022-12-22T03:28:05;39.33;;;18.70;;
61635;SDS011;59438;45.014;39.006;2022-12-22T03:30:32;31.92;;;18.85;;
61635;SDS011;59438;45.014;39.006;2022-12-22T03:33:01;36.70;;;20.33;;
61635;SDS011;59438;45.014;39.006;2022-12-22T03:35:27;42.60;;;18.95;;
61635;SDS011;59438;45.014;39.006;2022-12-22T03:37:54;36.80;;;18.70;;
61635;SDS011;59438;45.014;39.006;2022-12-22T03:40:20;31.48;;;17.65;;
61635;SDS011;59438;45.014;39.006;2022-12-22T03:42:46;34.55;;;18.20;;
61635;SDS011;59438;45.014;39.006;2022-12-22T03:45:13;31.48;;;17.65;;
61635;SDS011;59438;45.014;39.006;2022-12-22T03:47:39;34.45;;;17.27;;
61635;SDS011;59438;45.014;39.006;2022-12-22T03:50:07;29.85;;;15.73;;
61635;SDS011;59438;45.014;39.006;2022-12-22T03:52:34;31.27;;;16.52;;
61635;SDS011;59438;45.014;39.006;2022-12-22T03:55:01;36.92;;;15.80;;
61635;SDS011;59438;45.014;39.006;2022-12-22T03:57:27;25.88;;;14.85;;
61635;SDS011;59438;45.014;39.006;2022-12-22T03:59:53;26.25;;;14.75;;
61635;SDS011;59438;45.014;39.006;2022-12-22T04:02:20;32.72;;;14.90;;
61635;SDS011;59438;45.014;39.006;2022-12-22T04:04:46;26.60;;;13.20;;
61635;SDS011;59438;45.014;39.006;2022-12-22T04:07:14;23.42;;;11.18;;
61635;SDS011;59438;45.014;39.006;2022-12-22T04:09:40;29.95;;;12.73;;
61635;SDS011;59438;45.014;39.006;2022-12-22T04:12:07;28.60;;;11.88;;
61635;SDS011;59438;45.014;39.006;2022-12-22T04:14:33;22.30;;;11.88;;
61635;SDS011;59438;45.014;39.006;2022-12-22T04:17:00;23.92;;;11.93;;
61635;SDS011;59438;45.014;39.006;2022-12-22T04:19:27;25.38;;;10.63;;
61635;SDS011;59438;45.014;39.006;2022-12-22T04:21:53;21.52;;;10.05;;
61635;SDS011;59438;45.014;39.006;2022-12-22T04:24:21;24.10;;;10.70;;
61635;SDS011;59438;45.014;39.006;2022-12-22T04:26:48;24.55;;;10.57;;
61635;SDS011;59438;45.014;39.006;2022-12-22T04:29:15;17.05;;;9.93;;
61635;SDS011;59438;45.014;39.006;2022-12-22T04:31:41;22.00;;;10.43;;
61635;SDS011;59438;45.014;39.006;2022-12-22T04:34:08;23.42;;;11.07;;
61635;SDS011;59438;45.014;39.006;2022-12-22T04:36:34;20.88;;;10.15;;
61635;SDS011;59438;45.014;39.006;2022-12-22T04:39:01;26.42;;;11.45;;
61635;SDS011;59438;45.014;39.006;2022-12-22T04:41:29;26.73;;;13.25;;
61635;SDS011;59438;45.014;39.006;2022-12-22T04:43:55;29.92;;;12.30;;
61635;SDS011;59438;45.014;39.006;2022-12-22T04:46:22;27.33;;;13.30;;
61635;SDS011;59438;45.014;39.006;2022-12-22T04:48:48;32.42;;;14.10;;
61635;SDS011;59438;45.014;39.006;2022-12-22T04:51:14;45.95;;;19.77;;
61635;SDS011;59438;45.014;39.006;2022-12-22T04:53:41;27.75;;;15.15;;
61635;SDS011;59438;45.014;39.006;2022-12-22T04:56:07;35.67;;;15.25;;
61635;SDS011;59438;45.014;39.006;2022-12-22T04:58:35;42.17;;;18.65;;
61635;SDS011;59438;45.014;39.006;2022-12-22T05:01:08;36.60;;;18.73;;
61635;SDS011;59438;45.014;39.006;2022-12-22T05:03:36;41.33;;;19.75;;
61635;SDS011;59438;45.014;39.006;2022-12-22T05:06:03;40.63;;;16.67;;
61635;SDS011;59438;45.014;39.006;2022-12-22T05:08:29;28.05;;;12.73;;
61635;SDS011;59438;45.014;39.006;2022-12-22T05:10:56;25.27;;;12.38;;
61635;SDS011;59438;45.014;39.006;2022-12-22T05:13:22;22.65;;;10.23;;
61635;SDS011;59438;45.014;39.006;2022-12-22T05:15:50;24.95;;;10.57;;
61635;SDS011;59438;45.014;39.006;2022-12-22T05:18:16;16.63;;;8.93;;
61635;SDS011;59438;45.014;39.006;2022-12-22T05:20:43;19.48;;;9.25;;
61635;SDS011;59438;45.014;39.006;2022-12-22T05:23:09;13.90;;;7.70;;
61635;SDS011;59438;45.014;39.006;2022-12-22T05:25:36;16.42;;;8.10;;
61635;SDS011;59438;45.014;39.006;2022-12-22T05:28:02;15.02;;;7.05;;
61635;SDS011;59438;45.014;39.006;2022-12-22T05:30:29;13.38;;;6.50;;
61635;SDS011;59438;45.014;39.006;2022-12-22T05:32:57;13.90;;;7.80;;
61635;SDS011;59438;45.014;39.006;2022-12-22T05:35:23;11.00;;;6.45;;
61635;SDS011;59438;45.014;39.006;2022-12-22T05:37:49;10.25;;;6.50;;
61635;SDS011;59438;45.014;39.006;2022-12-22T05:40:16;12.02;;;6.32;;
61635;SDS011;59438;45.014;39.006;2022-12-22T05:42:42;12.20;;;6.18;;
61635;SDS011;59438;45.014;39.006;2022-12-22T05:45:10;14.38;;;6.20;;
61635;SDS011;59438;45.014;39.006;2022-12-22T05:47:38;15.65;;;6.75;;
61635;SDS011;59438;45.014;39.006;2022-12-22T05:50:07;14.13;;;7.03;;
61635;SDS011;59438;45.014;39.006;2022-12-22T05:52:34;13.63;;;6.88;;
61635;SDS011;59438;45.014;39.006;2022-12-22T05:55:00;12.90;;;7.03;;
61635;SDS011;59438;45.014;39.006;2022-12-22T05:57:27;12.57;;;5.85;;
61635;SDS011;59438;45.014;39.006;2022-12-22T05:59:53;12.43;;;5.95;;
61635;SDS011;59438;45.014;39.006;2022-12-22T06:02:19;11.68;;;5.90;;
61635;SDS011;59438;45.014;39.006;2022-12-22T06:04:46;12.43;;;6.28;;
61635;SDS011;59438;45.014;39.006;2022-12-22T06:07:13;22.02;;;7.90;;
61635;SDS011;59438;45.014;39.006;2022-12-22T06:09:40;16.67;;;8.20;;
61635;SDS011;59438;45.014;39.006;2022-12-22T06:12:07;12.75;;;6.95;;
61635;SDS011;59438;45.014;39.006;2022-12-22T06:14:34;15.30;;;6.07;;
61635;SDS011;59438;45.014;39.006;2022-12-22T06:17:00;13.63;;;6.32;;
61635;SDS011;59438;45.014;39.006;2022-12-22T06:19:27;9.27;;;6.05;;
61635;SDS011;59438;45.014;39.006;2022-12-22T06:21:53;13.80;;;5.63;;
61635;SDS011;59438;45.014;39.006;2022-12-22T06:24:21;11.00;;;5.55;;
61635;SDS011;59438;45.014;39.006;2022-12-22T06:26:47;13.68;;;5.80;;
61635;SDS011;59438;45.014;39.006;2022-12-22T06:29:14;11.88;;;6.18;;
61635;SDS011;59438;45.014;39.006;2022-12-22T06:31:40;14.32;;;7.15;;
61635;SDS011;59438;45.014;39.006;2022-12-22T06:34:07;17.80;;;6.43;;
61635;SDS011;59438;45.014;39.006;2022-12-22T06:36:34;15.43;;;5.90;;
61635;SDS011;59438;45.014;39.006;2022-12-22T06:39:00;17.20;;;7.63;;
61635;SDS011;59438;45.014;39.006;2022-12-22T06:41:28;14.52;;;6.55;;
61635;SDS011;59438;45.014;39.006;2022-12-22T06:43:54;17.33;;;7.60;;
61635;SDS011;59438;45.014;39.006;2022-12-22T06:46:20;13.13;;;6.90;;
61635;SDS011;59438;45.014;39.006;2022-12-22T06:48:47;23.83;;;8.48;;
61635;SDS011;59438;45.014;39.006;2022-12-22T06:51:13;20.23;;;8.48;;
61635;SDS011;59438;45.014;39.006;2022-12-22T06:53:39;23.70;;;9.10;;
61635;SDS011;59438;45.014;39.006;2022-12-22T06:56:06;17.13;;;8.05;;
61635;SDS011;59438;45.014;39.006;2022-12-22T06:58:34;16.10;;;8.88;;
61635;SDS011;59438;45.014;39.006;2022-12-22T07:01:00;15.90;;;8.65;;
61635;SDS011;59438;45.014;39.006;2022-12-22T07:03:27;19.73;;;8.88;;
61635;SDS011;59438;45.014;39.006;2022-12-22T07:05:53;14.93;;;8.57;;
61635;SDS011;59438;45.014;39.006;2022-12-22T07:08:19;14.60;;;8.75;;
61635;SDS011;59438;45.014;39.006;2022-12-22T07:10:46;19.83;;;8.48;;
61635;SDS011;59438;45.014;39.006;2022-12-22T07:13:12;15.35;;;7.68;;
61635;SDS011;59438;45.014;39.006;2022-12-22T07:15:40;16.75;;;6.97;;
61635;SDS011;59438;45.014;39.006;2022-12-22T07:18:06;15.50;;;7.07;;
61635;SDS011;59438;45.014;39.006;2022-12-22T07:20:32;12.20;;;6.30;;
61635;SDS011;59438;45.014;39.006;2022-12-22T07:22:59;11.57;;;5.68;;
61635;SDS011;59438;45.014;39.006;2022-12-22T07:25:25;14.63;;;6.85;;
61635;SDS011;59438;45.014;39.006;2022-12-22T07:27:52;10.63;;;6.07;;
61635;SDS011;59438;45.014;39.006;2022-12-22T07:30:18;15.80;;;7.30;;
61635;SDS011;59438;45.014;39.006;2022-12-22T07:32:46;11.73;;;7.03;;
61635;SDS011;59438;45.014;39.006;2022-12-22T07:35:12;13.30;;;8.27;;
61635;SDS011;59438;45.014;39.006;2022-12-22T07:37:39;15.50;;;8.05;;
61635;SDS011;59438;45.014;39.006;2022-12-22T07:40:05;15.32;;;9.50;;
61635;SDS011;59438;45.014;39.006;2022-12-22T07:42:33;25.00;;;12.02;;
61635;SDS011;59438;45.014;39.006;2022-12-22T07:44:59;24.30;;;13.10;;
61635;SDS011;59438;45.014;39.006;2022-12-22T07:47:25;26.45;;;11.88;;
61635;SDS011;59438;45.014;39.006;2022-12-22T07:49:53;24.98;;;13.02;;
61635;SDS011;59438;45.014;39.006;2022-12-22T07:52:19;32.95;;;12.52;;
61635;SDS011;59438;45.014;39.006;2022-12-22T07:54:46;21.30;;;11.02;;
61635;SDS011;59438;45.014;39.006;2022-12-22T07:57:12;17.88;;;10.93;;
61635;SDS011;59438;45.014;39.006;2022-12-22T07:59:38;31.73;;;12.95;;
61635;SDS011;59438;45.014;39.006;2022-12-22T08:02:05;24.52;;;11.88;;
61635;SDS011;59438;45.014;39.006;2022-12-22T08:04:34;27.73;;;14.65;;
61635;SDS011;59438;45.014;39.006;2022-12-22T08:07:02;24.00;;;13.60;;
61635;SDS011;59438;45.014;39.006;2022-12-22T08:09:28;17.35;;;10.73;;
61635;SDS011;59438;45.014;39.006;2022-12-22T08:11:55;20.77;;;11.85;;
61635;SDS011;59438;45.014;39.006;2022-12-22T08:14:21;19.17;;;10.55;;
61635;SDS011;59438;45.014;39.006;2022-12-22T08:16:47;31.98;;;11.02;;
61635;SDS011;59438;45.014;39.006;2022-12-22T08:19:14;24.88;;;10.30;;
61635;SDS011;59438;45.014;39.006;2022-12-22T08:21:40;24.52;;;11.30;;
61635;SDS011;59438;45.014;39.006;2022-12-22T08:24:08;34.33;;;15.45;;
61635;SDS011;59438;45.014;39.006;2022-12-22T08:26:35;29.65;;;13.43;;
61635;SDS011;59438;45.014;39.006;2022-12-22T08:29:06;33.22;;;14.02;;
61635;SDS011;59438;45.014;39.006;2022-12-22T08:34:04;23.58;;;10.35;;
61635;SDS011;59438;45.014;39.006;2022-12-22T08:36:33;25.85;;;9.57;;
61635;SDS011;59438;45.014;39.006;2022-12-22T08:39:02;25.73;;;11.00;;
61635;SDS011;59438;45.014;39.006;2022-12-22T08:41:31;18.85;;;9.05;;
61635;SDS011;59438;45.014;39.006;2022-12-22T08:43:59;19.63;;;8.80;;
61635;SDS011;59438;45.014;39.006;2022-12-22T08:46:25;24.88;;;9.68;;
61635;SDS011;59438;45.014;39.006;2022-12-22T08:48:52;16.23;;;8.77;;
61635;SDS011;59438;45.014;39.006;2022-12-22T08:51:18;15.07;;;8.80;;
61635;SDS011;59438;45.014;39.006;2022-12-22T08:53:44;14.90;;;8.45;;
61635;SDS011;59438;45.014;39.006;2022-12-22T08:56:11;16.00;;;9.38;;
61635;SDS011;59438;45.014;39.006;2022-12-22T08:58:38;17.05;;;8.38;;
61635;SDS011;59438;45.014;39.006;2022-12-22T09:01:05;17.33;;;8.10;;
61635;SDS011;59438;45.014;39.006;2022-12-22T09:03:31;12.93;;;7.22;;
61635;SDS011;59438;45.014;39.006;2022-12-22T09:05:59;16.63;;;7.90;;
61635;SDS011;59438;45.014;39.006;2022-12-22T09:08:25;17.55;;;7.85;;
61635;SDS011;59438;45.014;39.006;2022-12-22T09:10:52;17.85;;;7.57;;
61635;SDS011;59438;45.014;39.006;2022-12-22T09:13:18;19.20;;;8.02;;
61635;SDS011;59438;45.014;39.006;2022-12-22T09:15:46;17.70;;;8.35;;
61635;SDS011;59438;45.014;39.006;2022-12-22T09:18:12;14.50;;;7.78;;
61635;SDS011;59438;45.014;39.006;2022-12-22T09:20:38;15.55;;;7.30;;
61635;SDS011;59438;45.014;39.006;2022-12-22T09:23:05;12.52;;;7.65;;
61635;SDS011;59438;45.014;39.006;2022-12-22T09:25:33;15.95;;;7.63;;
61635;SDS011;59438;45.014;39.006;2022-12-22T09:27:59;16.88;;;7.55;;
61635;SDS011;59438;45.014;39.006;2022-12-22T09:30:26;18.65;;;8.98;;
61635;SDS011;59438;45.014;39.006;2022-12-22T09:32:54;18.85;;;8.90;;
61635;SDS011;59438;45.014;39.006;2022-12-22T09:35:20;54.45;;;24.45;;
61635;SDS011;59438;45.014;39.006;2022-12-22T09:37:47;49.75;;;26.85;;
61635;SDS011;59438;45.014;39.006;2022-12-22T09:40:14;13.55;;;8.10;;
61635;SDS011;59438;45.014;39.006;2022-12-22T09:42:40;29.83;;;12.63;;
61635;SDS011;59438;45.014;39.006;2022-12-22T09:45:10;22.60;;;12.15;;
61635;SDS011;59438;45.014;39.006;2022-12-22T09:47:39;13.60;;;8.75;;
61635;SDS011;59438;45.014;39.006;2022-12-22T09:50:11;17.40;;;8.05;;
61635;SDS011;59438;45.014;39.006;2022-12-22T09:52:41;12.70;;;6.78;;
61635;SDS011;59438;45.014;39.006;2022-12-22T09:55:13;15.13;;;10.95;;
61635;SDS011;59438;45.014;39.006;2022-12-22T09:57:50;20.60;;;13.32;;
61635;SDS011;59438;45.014;39.006;2022-12-22T10:00:19;10.57;;;6.53;;
61635;SDS011;59438;45.014;39.006;2022-12-22T10:02:49;11.70;;;5.97;;
61635;SDS011;59438;45.014;39.006;2022-12-22T10:05:25;11.98;;;6.15;;
61635;SDS011;59438;45.014;39.006;2022-12-22T10:08:00;10.40;;;7.47;;
61635;SDS011;59438;45.014;39.006;2022-12-22T10:10:33;9.13;;;5.65;;
61635;SDS011;59438;45.014;39.006;2022-12-22T10:13:00;16.08;;;9.98;;
61635;SDS011;59438;45.014;39.006;2022-12-22T10:15:33;25.58;;;16.50;;
61635;SDS011;59438;45.014;39.006;2022-12-22T10:18:07;15.93;;;11.40;;
61635;SDS011;59438;45.014;39.006;2022-12-22T10:20:37;34.15;;;20.60;;
61635;SDS011;59438;45.014;39.006;2022-12-22T10:23:11;15.80;;;11.30;;
61635;SDS011;59438;45.014;39.006;2022-12-22T10:25:41;10.05;;;7.35;;
61635;SDS011;59438;45.014;39.006;2022-12-22T10:28:11;13.68;;;6.60;;
61635;SDS011;59438;45.014;39.006;2022-12-22T10:30:42;20.58;;;16.60;;
61635;SDS011;59438;45.014;39.006;2022-12-22T10:33:09;49.55;;;32.50;;
61635;SDS011;59438;45.014;39.006;2022-12-22T10:35:45;74.47;;;43.92;;
61635;SDS011;59438;45.014;39.006;2022-12-22T10:38:15;21.90;;;16.45;;
61635;SDS011;59438;45.014;39.006;2022-12-22T10:40:49;9.55;;;6.65;;
61635;SDS011;59438;45.014;39.006;2022-12-22T10:43:18;15.82;;;10.93;;
61635;SDS011;59438;45.014;39.006;2022-12-22T10:45:47;15.70;;;5.90;;
61635;SDS011;59438;45.014;39.006;2022-12-22T10:48:16;18.17;;;14.60;;
61635;SDS011;59438;45.014;39.006;2022-12-22T10:50:51;13.95;;;7.93;;
61635;SDS011;59438;45.014;39.006;2022-12-22T10:53:18;12.25;;;5.57;;
61635;SDS011;59438;45.014;39.006;2022-12-22T10:55:44;7.75;;;5.30;;
61635;SDS011;59438;45.014;39.006;2022-12-22T10:58:14;8.57;;;4.70;;
61635;SDS011;59438;45.014;39.006;2022-12-22T11:00:41;8.53;;;5.03;;
61635;SDS011;59438;45.014;39.006;2022-12-22T11:03:09;8.23;;;5.13;;
61635;SDS011;59438;45.014;39.006;2022-12-22T11:05:37;10.98;;;6.30;;
61635;SDS011;59438;45.014;39.006;2022-12-22T11:08:15;13.30;;;6.22;;
61635;SDS011;59438;45.014;39.006;2022-12-22T11:10:46;10.75;;;5.43;;
61635;SDS011;59438;45.014;39.006;2022-12-22T11:13:20;13.43;;;6.45;;
61635;SDS011;59438;45.014;39.006;2022-12-22T11:15:57;12.18;;;5.20;;
61635;SDS011;59438;45.014;39.006;2022-12-22T11:18:43;17.10;;;9.95;;
61635;SDS011;59438;45.014;39.006;2022-12-22T11:21:20;24.00;;;12.15;;
61635;SDS011;59438;45.014;39.006;2022-12-22T11:23:58;49.42;;;24.60;;
61635;SDS011;59438;45.014;39.006;2022-12-22T11:26:34;29.20;;;13.38;;
61635;SDS011;59438;45.014;39.006;2022-12-22T11:29:12;61.40;;;28.98;;
61635;SDS011;59438;45.014;39.006;2022-12-22T11:31:55;177.18;;;70.43;;
61635;SDS011;59438;45.014;39.006;2022-12-22T11:34:39;173.32;;;94.10;;
61635;SDS011;59438;45.014;39.006;2022-12-22T11:37:22;27.48;;;13.10;;
61635;SDS011;59438;45.014;39.006;2022-12-22T11:39:55;83.55;;;46.80;;
61635;SDS011;59438;45.014;39.006;2022-12-22T11:42:38;47.65;;;24.63;;
61635;SDS011;59438;45.014;39.006;2022-12-22T11:45:26;60.42;;;31.27;;
61635;SDS011;59438;45.014;39.006;2022-12-22T11:48:05;33.40;;;18.42;;
61635;SDS011;59438;45.014;39.006;2022-12-22T11:50:44;24.67;;;17.17;;
61635;SDS011;59438;45.014;39.006;2022-12-22T11:53:27;24.33;;;15.60;;
61635;SDS011;59438;45.014;39.006;2022-12-22T11:56:13;19.08;;;8.25;;
61635;SDS011;59438;45.014;39.006;2022-12-22T11:58:50;11.27;;;6.63;;
61635;SDS011;59438;45.014;39.006;2022-12-22T12:01:33;11.63;;;7.45;;
61635;SDS011;59438;45.014;39.006;2022-12-22T12:07:24;11.15;;;5.60;;
61635;SDS011;59438;45.014;39.006;2022-12-22T12:09:57;5.53;;;3.85;;
61635;SDS011;59438;45.014;39.006;2022-12-22T12:12:35;45.40;;;24.65;;
61635;SDS011;59438;45.014;39.006;2022-12-22T12:15:16;16.42;;;9.18;;
61635;SDS011;59438;45.014;39.006;2022-12-22T12:17:51;20.30;;;8.98;;
61635;SDS011;59438;45.014;39.006;2022-12-22T12:20:36;18.85;;;7.65;;
61635;SDS011;59438;45.014;39.006;2022-12-22T12:23:18;21.10;;;7.55;;
61635;SDS011;59438;45.014;39.006;2022-12-22T12:25:52;21.17;;;11.07;;
61635;SDS011;59438;45.014;39.006;2022-12-22T12:28:27;13.77;;;5.93;;
61635;SDS011;59438;45.014;39.006;2022-12-22T12:31:04;18.25;;;10.95;;
61635;SDS011;59438;45.014;39.006;2022-12-22T12:36:06;81.47;;;45.97;;
61635;SDS011;59438;45.014;39.006;2022-12-22T12:38:40;273.55;;;145.38;;
61635;SDS011;59438;45.014;39.006;2022-12-22T12:41:19;157.55;;;115.85;;
61635;SDS011;59438;45.014;39.006;2022-12-22T12:43:50;34.17;;;22.90;;
61635;SDS011;59438;45.014;39.006;2022-12-22T12:52:09;33.75;;;17.38;;
61635;SDS011;59438;45.014;39.006;2022-12-22T12:54:36;10.60;;;6.55;;
61635;SDS011;59438;45.014;39.006;2022-12-22T12:57:20;17.88;;;6.05;;
61635;SDS011;59438;45.014;39.006;2022-12-22T13:00:38;18.15;;;6.50;;
61635;SDS011;59438;45.014;39.006;2022-12-22T13:03:09;30.42;;;15.35;;
61635;SDS011;59438;45.014;39.006;2022-12-22T13:05:47;26.13;;;15.20;;
61635;SDS011;59438;45.014;39.006;2022-12-22T13:08:16;26.30;;;13.02;;
61635;SDS011;59438;45.014;39.006;2022-12-22T13:10:45;11.05;;;6.85;;
61635;SDS011;59438;45.014;39.006;2022-12-22T13:13:49;22.08;;;8.82;;
61635;SDS011;59438;45.014;39.006;2022-12-22T13:16:22;37.47;;;21.83;;
61635;SDS011;59438;45.014;39.006;2022-12-22T13:18:50;17.35;;;8.70;;
61635;SDS011;59438;45.014;39.006;2022-12-22T13:21:18;21.30;;;12.55;;
61635;SDS011;59438;45.014;39.006;2022-12-22T13:23:48;21.27;;;11.38;;
61635;SDS011;59438;45.014;39.006;2022-12-22T13:26:21;14.88;;;9.60;;
61635;SDS011;59438;45.014;39.006;2022-12-22T13:28:51;33.28;;;13.35;;
61635;SDS011;59438;45.014;39.006;2022-12-22T13:31:24;30.55;;;14.93;;
61635;SDS011;59438;45.014;39.006;2022-12-22T13:34:00;35.15;;;13.02;;
61635;SDS011;59438;45.014;39.006;2022-12-22T13:36:31;20.23;;;10.40;;
61635;SDS011;59438;45.014;39.006;2022-12-22T13:38:58;17.35;;;9.55;;
61635;SDS011;59438;45.014;39.006;2022-12-22T13:41:26;17.73;;;9.38;;
61635;SDS011;59438;45.014;39.006;2022-12-22T13:43:56;24.25;;;9.35;;
61635;SDS011;59438;45.014;39.006;2022-12-22T13:46:30;20.33;;;8.68;;
61635;SDS011;59438;45.014;39.006;2022-12-22T13:48:58;20.73;;;8.97;;
61635;SDS011;59438;45.014;39.006;2022-12-22T13:51:26;19.55;;;7.63;;
61635;SDS011;59438;45.014;39.006;2022-12-22T13:53:55;16.13;;;7.50;;
61635;SDS011;59438;45.014;39.006;2022-12-22T13:56:25;19.05;;;7.47;;
61635;SDS011;59438;45.014;39.006;2022-12-22T13:58:59;17.88;;;7.28;;
61635;SDS011;59438;45.014;39.006;2022-12-22T14:01:26;13.93;;;6.95;;
61635;SDS011;59438;45.014;39.006;2022-12-22T14:03:57;16.38;;;7.15;;
61635;SDS011;59438;45.014;39.006;2022-12-22T14:06:26;25.48;;;6.85;;
61635;SDS011;59438;45.014;39.006;2022-12-22T14:08:53;20.65;;;6.22;;
61635;SDS011;59438;45.014;39.006;2022-12-22T14:11:34;19.92;;;6.15;;
61635;SDS011;59438;45.014;39.006;2022-12-22T14:14:05;15.80;;;6.70;;
61635;SDS011;59438;45.014;39.006;2022-12-22T14:16:32;15.73;;;5.93;;
61635;SDS011;59438;45.014;39.006;2022-12-22T14:19:00;18.80;;;6.43;;
61635;SDS011;59438;45.014;39.006;2022-12-22T14:21:26;18.98;;;6.55;;
61635;SDS011;59438;45.014;39.006;2022-12-22T14:23:53;23.17;;;10.30;;
61635;SDS011;59438;45.014;39.006;2022-12-22T14:26:20;36.35;;;12.95;;
61635;SDS011;59438;45.014;39.006;2022-12-22T14:28:51;39.85;;;17.75;;
61635;SDS011;59438;45.014;39.006;2022-12-22T14:31:20;46.70;;;21.88;;
61635;SDS011;59438;45.014;39.006;2022-12-22T14:33:50;60.28;;;26.73;;
61635;SDS011;59438;45.014;39.006;2022-12-22T14:36:20;60.58;;;27.65;;
61635;SDS011;59438;45.014;39.006;2022-12-22T14:38:48;49.78;;;24.60;;
61635;SDS011;59438;45.014;39.006;2022-12-22T14:41:17;59.55;;;24.70;;
61635;SDS011;59438;45.014;39.006;2022-12-22T14:43:48;53.03;;;22.15;;
61635;SDS011;59438;45.014;39.006;2022-12-22T14:46:16;39.97;;;20.38;;
61635;SDS011;59438;45.014;39.006;2022-12-22T14:48:44;43.95;;;17.33;;